Terminal Aerodrome Forecast
Issued by NWS

Home | Current Version | Previous Version | Text Only | Print | Product List | Glossary Off
Versions: 1 2 3 4 5 6 7 8 9 10 11 12 13 14 15 16

000
FTUS43 KICT 142300
TAFHUT
TAF
KHUT 142325Z 1500/1524 33014G22KT P6SM FEW080
     FM150100 30007KT P6SM FEW100
     FM151500 24011KT P6SM SKC
     FM151900 19016G25KT P6SM SKC=

USA.gov is the U.S. government's official web portal to all federal, state and local government web resources and services.